Time;durP1;ratioP1;P1;durP2;ratioP2;P2;SDS_P1;SDS_P2;PMS_P1;PMS_P2;Temp;Humidity;BMP_temperature;BMP_pressure;BME280_temperature;BME280_humidity;BME280_pressure;Samples;Min_cycle;Max_cycle;Signal;HPM_P1;HPM_P2
2021/06/02 00:01:16;;;;;;;14.90;7.73;;;;;;;13.15;47.51;100589.77;126653;1098;103015;-82
2021/06/02 00:04:11;;;;;;;10.50;7.37;;;;;;;13.12;47.78;100592.52;126605;1099;103097;-81
2021/06/02 00:07:06;;;;;;;10.60;6.30;;;;;;;13.09;47.60;100589.98;126685;1098;102930;-82
2021/06/02 00:09:55;;;;;;;12.43;7.30;;;;;;;13.06;47.88;100589.24;126600;1101;102757;-81
2021/06/02 00:12:44;;;;;;;11.30;6.40;;;;;;;13.04;47.70;100591.92;126610;1098;102970;-81
2021/06/02 00:15:34;;;;;;;10.17;6.13;;;;;;;13.00;47.77;100590.33;126567;1098;102958;-81
2021/06/02 00:18:22;;;;;;;9.23;6.73;;;;;;;12.99;47.63;100588.63;126493;1101;103106;-81
2021/06/02 00:21:10;;;;;;;9.70;6.70;;;;;;;12.99;47.83;100583.39;126682;1098;102943;-82
2021/06/02 00:24:01;;;;;;;10.40;6.70;;;;;;;12.97;47.75;100585.22;126659;1093;102976;-81
2021/06/02 00:26:53;;;;;;;10.23;6.60;;;;;;;12.96;47.67;100588.74;126584;1098;103059;-82
2021/06/02 00:29:44;;;;;;;11.83;6.53;;;;;;;12.95;47.84;100592.27;126696;1093;103091;-81
2021/06/02 00:32:33;;;;;;;8.93;6.13;;;;;;;12.93;47.57;100594.09;126650;1098;103097;-81
2021/06/02 00:35:24;;;;;;;11.27;7.03;;;;;;;12.92;47.69;100602.83;126499;1099;102885;-81
2021/06/02 00:38:14;;;;;;;9.67;6.50;;;;;;;12.89;47.83;100598.56;126665;1098;102958;-81
2021/06/02 00:41:03;;;;;;;9.33;6.40;;;;;;;12.88;47.73;100606.47;126498;1098;102930;-82
2021/06/02 00:43:51;;;;;;;7.97;5.97;;;;;;;12.85;47.85;100603.97;126552;1100;103026;-82
2021/06/02 00:46:41;;;;;;;8.47;6.30;;;;;;;12.83;47.92;100600.56;126446;1093;102994;-81
2021/06/02 00:49:31;;;;;;;8.73;6.13;;;;;;;12.82;47.71;100607.56;126616;1100;102995;-82
2021/06/02 00:52:30;;;;;;;10.67;6.63;;;;;;;12.81;47.69;100599.77;126766;1093;101327;-81
2021/06/02 00:55:21;;;;;;;10.63;6.30;;;;;;;12.81;47.82;100597.14;126602;1101;103036;-83
2021/06/02 00:58:28;;;;;;;9.27;6.60;;;;;;;12.79;47.75;100601.58;126652;1100;102942;-81
2021/06/02 01:01:17;;;;;;;8.43;6.40;;;;;;;12.77;47.85;100606.02;126668;1093;102926;-81
2021/06/02 01:04:08;;;;;;;9.07;5.93;;;;;;;12.76;47.73;100607.78;126669;1098;103068;-82
2021/06/02 01:06:58;;;;;;;8.50;6.17;;;;;;;12.75;47.79;100603.46;126708;1098;103035;-81
2021/06/02 01:09:52;;;;;;;8.07;6.23;;;;;;;12.76;47.72;100604.31;126604;1093;102929;-81
2021/06/02 01:12:44;;;;;;;9.03;6.47;;;;;;;12.77;47.98;100606.02;126574;1101;102929;-81
2021/06/02 01:15:32;;;;;;;8.47;6.20;;;;;;;12.77;47.93;100606.02;126697;1098;103445;-81
2021/06/02 01:18:23;;;;;;;8.63;6.00;;;;;;;12.77;47.89;100616.49;126582;1101;103001;-81
2021/06/02 01:21:23;;;;;;;11.57;6.67;;;;;;;12.76;47.86;100617.41;126637;1098;103007;-81
2021/06/02 01:24:11;;;;;;;9.80;6.50;;;;;;;12.76;48.20;100627.88;126708;1098;102953;-81
2021/06/02 01:27:04;;;;;;;9.93;6.10;;;;;;;12.73;48.38;100625.33;126655;1094;103024;-81
2021/06/02 01:29:53;;;;;;;9.60;6.43;;;;;;;12.70;48.21;100621.92;126589;1101;103062;-81
2021/06/02 01:32:55;;;;;;;11.20;6.53;;;;;;;12.69;47.99;100628.06;126671;1098;102919;-81
2021/06/02 01:36:07;;;;;;;10.23;6.40;;;;;;;12.69;48.18;100630.67;126489;1098;103161;-81
2021/06/02 01:40:08;;;;;;;12.67;6.33;;;;;;;12.68;48.14;100630.73;126514;1098;103158;-81
2021/06/02 01:43:18;;;;;;;11.37;6.20;;;;;;;12.68;48.45;100635.97;126059;1104;102986;-83
2021/06/02 01:46:52;;;;;;;13.33;6.93;;;;;;;12.65;48.73;100636.08;126005;1104;103187;-83
2021/06/02 01:50:35;;;;;;;11.90;6.70;;;;;;;12.63;48.85;100633.52;125936;1102;103017;-83
2021/06/02 01:53:33;;;;;;;9.63;6.67;;;;;;;12.62;48.95;100630.95;125995;1107;103033;-83
2021/06/02 01:57:11;;;;;;;10.53;6.27;;;;;;;12.61;49.01;100630.11;125920;1108;102956;-83
2021/06/02 02:00:15;;;;;;;;;;;;;;;12.60;49.11;100643.24;125184;1110;103146;-83
2021/06/02 02:03:36;;;;;;;10.87;6.53;;;;;;;12.57;49.33;100643.35;125110;1110;103221;-83
2021/06/02 02:06:24;;;;;;;14.53;7.63;;;;;;;12.56;49.45;100642.47;125156;1111;102767;-83
2021/06/02 02:09:40;;;;;;;10.47;6.93;;;;;;;12.54;49.45;100644.28;125358;1108;102990;-83
2021/06/02 02:12:57;;;;;;;9.97;6.77;;;;;;;12.53;49.56;100647.81;125183;1110;102973;-83
2021/06/02 02:16:15;;;;;;;10.90;7.07;;;;;;;12.51;49.79;100641.78;126065;1104;103040;-83
2021/06/02 02:19:24;;;;;;;;;;;;;;;12.50;49.78;100647.92;126129;1104;103384;-83
2021/06/02 02:22:26;;;;;;;11.13;7.13;;;;;;;12.49;49.88;100651.44;126024;1104;103176;-83
2021/06/02 02:25:45;;;;;;;12.15;7.60;;;;;;;12.48;50.00;100654.97;126038;1104;102927;-83
2021/06/02 02:29:10;;;;;;;10.67;7.13;;;;;;;12.44;50.08;100658.59;126039;1104;103048;-83
2021/06/02 02:32:53;;;;;;;9.87;6.93;;;;;;;12.38;50.39;100659.63;126120;1104;102956;-83
2021/06/02 02:35:55;;;;;;;9.87;7.00;;;;;;;12.35;50.48;100664.11;126064;1104;102982;-82
2021/06/02 02:38:55;;;;;;;9.63;6.93;;;;;;;12.33;50.66;100671.16;126127;1104;102939;-83
2021/06/02 02:42:20;;;;;;;10.57;7.27;;;;;;;12.33;50.81;100671.16;126162;1104;103152;-83
2021/06/02 02:45:23;;;;;;;15.47;6.97;;;;;;;12.31;50.68;100668.59;126114;1102;103403;-82
2021/06/02 02:48:15;;;;;;;9.47;6.83;;;;;;;12.31;50.69;100675.59;126138;1104;103046;-82
2021/06/02 02:51:39;;;;;;;8.50;6.40;;;;;;;12.30;50.94;100673.88;126250;1096;104251;-82
2021/06/02 02:54:53;;;;;;;9.37;6.23;;;;;;;12.30;50.85;100674.73;126169;1104;103073;-81
2021/06/02 02:58:14;;;;;;;10.00;6.60;;;;;;;12.32;50.82;100677.30;126142;1104;103100;-81
2021/06/02 03:01:16;;;;;;;8.37;6.53;;;;;;;12.33;51.02;100673.77;126155;1104;102959;-83
2021/06/02 03:04:25;;;;;;;10.83;6.60;;;;;;;12.36;51.13;100676.28;126223;1104;102939;-81
2021/06/02 03:07:20;;;;;;;12.07;6.73;;;;;;;12.39;51.11;100676.22;126095;1096;102766;-81
2021/06/02 03:10:14;;;;;;;9.93;6.30;;;;;;;12.43;51.02;100682.19;126211;1104;102259;-81
2021/06/02 03:13:19;;;;;;;8.67;6.13;;;;;;;12.46;51.00;100689.94;126355;1093;102952;-80
2021/06/02 03:16:16;;;;;;;9.67;6.60;;;;;;;12.50;50.90;100684.55;126687;1098;101387;-83
2021/06/02 03:19:14;;;;;;;9.53;6.87;;;;;;;12.53;51.33;100689.67;126540;1098;102895;-82
2021/06/02 03:22:14;;;;;;;8.50;6.47;;;;;;;12.56;51.07;100691.33;126499;1098;102995;-83
2021/06/02 03:25:30;;;;;;;8.97;6.73;;;;;;;12.59;51.24;100684.25;126570;1099;103528;-83
2021/06/02 03:28:56;;;;;;;9.77;6.57;;;;;;;12.63;51.02;100691.09;126618;1098;103107;-83
2021/06/02 03:32:10;;;;;;;7.13;6.10;;;;;;;12.68;51.06;100678.69;126656;1099;102936;-82
2021/06/02 03:35:12;;;;;;;11.33;6.30;;;;;;;12.74;51.03;100687.23;126620;1100;103050;-83
2021/06/02 03:38:18;;;;;;;11.47;6.57;;;;;;;12.80;50.86;100682.67;126645;1100;103435;-83
2021/06/02 03:41:28;;;;;;;13.27;6.50;;;;;;;12.88;50.95;100695.48;126771;1098;103068;-83
2021/06/02 03:44:44;;;;;;;9.67;6.50;;;;;;;12.96;50.63;100698.70;126776;1098;103182;-83
2021/06/02 03:47:59;;;;;;;15.80;6.20;;;;;;;13.04;50.66;100701.05;126869;1098;102933;-82
2021/06/02 03:51:14;;;;;;;10.57;6.13;;;;;;;13.11;50.59;100703.41;126608;1101;102978;-83
2021/06/02 03:54:46;;;;;;;12.57;6.70;;;;;;;13.22;50.31;100710.91;126488;1101;103022;-82
2021/06/02 03:57:54;;;;;;;9.30;6.30;;;;;;;13.29;50.05;100704.55;126177;1103;102998;-83
2021/06/02 04:01:23;;;;;;;9.73;5.80;;;;;;;13.37;50.08;100704.27;126138;1104;103156;-82
2021/06/02 04:04:39;;;;;;;11.60;6.43;;;;;;;13.50;50.05;100708.16;126210;1104;103033;-81
2021/06/02 04:07:44;;;;;;;13.00;6.43;;;;;;;13.61;49.94;100714.69;126141;1104;103120;-82
2021/06/02 04:10:50;;;;;;;9.37;5.80;;;;;;;13.74;49.72;100715.09;126216;1104;102975;-81
2021/06/02 04:14:00;;;;;;;12.90;6.23;;;;;;;13.81;49.29;100711.31;126078;1104;103821;-80
2021/06/02 04:16:49;;;;;;;8.50;5.23;;;;;;;13.90;49.05;100723.23;126100;1102;102952;-82
2021/06/02 04:19:38;;;;;;;10.07;5.93;;;;;;;13.98;48.91;100723.78;126124;1104;103529;-82
2021/06/02 04:22:32;;;;;;;10.80;6.17;;;;;;;14.04;48.76;100720.09;126139;1097;102965;-83
2021/06/02 04:25:22;;;;;;;9.20;5.90;;;;;;;14.02;48.65;100728.02;126131;1104;103128;-82
2021/06/02 04:28:12;;;;;;;7.67;5.50;;;;;;;14.03;48.57;100734.97;126153;1101;103420;-83
2021/06/02 04:31:24;;;;;;;9.60;5.80;;;;;;;14.01;48.69;100734.18;126504;1101;103008;-83
2021/06/02 04:34:14;;;;;;;8.27;6.07;;;;;;;13.98;48.74;100739.52;126499;1101;103038;-83
2021/06/02 04:37:05;;;;;;;9.63;5.63;;;;;;;13.98;48.69;100743.91;126549;1093;103431;-83
2021/06/02 04:39:53;;;;;;;7.57;5.60;;;;;;;14.03;48.64;100741.98;126466;1094;103295;-82
2021/06/02 04:42:42;;;;;;;11.87;5.80;;;;;;;14.04;48.94;100752.41;126573;1101;103352;-82
2021/06/02 04:45:33;;;;;;;9.13;5.50;;;;;;;14.07;48.46;100744.42;126525;1101;102976;-83
2021/06/02 04:48:25;;;;;;;9.90;5.90;;;;;;;14.11;48.54;100747.78;126605;1101;103061;-83
2021/06/02 04:51:37;;;;;;;8.80;5.40;;;;;;;14.19;48.43;100753.59;126504;1101;103016;-82
2021/06/02 04:54:44;;;;;;;9.47;5.83;;;;;;;14.31;48.60;100758.34;126533;1101;103093;-82
2021/06/02 04:58:08;;;;;;;11.70;6.20;;;;;;;14.42;48.24;100766.66;126555;1101;103022;-83
2021/06/02 05:01:34;;;;;;;8.40;5.47;;;;;;;14.54;47.61;100769.72;126611;1101;103036;-83
2021/06/02 05:04:50;;;;;;;6.37;5.10;;;;;;;14.67;47.45;100766.55;126533;1101;102967;-83
2021/06/02 05:07:47;;;;;;;9.20;5.20;;;;;;;14.86;47.12;100769.27;126525;1101;105364;-83
2021/06/02 05:11:10;;;;;;;6.60;5.23;;;;;;;15.08;46.94;100777.09;126568;1101;103099;-83
2021/06/02 05:14:36;;;;;;;8.37;4.73;;;;;;;15.29;46.48;100777.98;126158;1104;103073;-82
2021/06/02 05:18:02;;;;;;;11.83;4.67;;;;;;;15.47;45.76;100774.55;126103;1104;102934;-83
2021/06/02 05:22:05;;;;;;;7.40;5.05;;;;;;;15.65;45.30;100783.44;126031;1104;101845;-83
2021/06/02 05:25:20;;;;;;;;;;;;;;;15.85;44.86;100782.54;125991;1105;102934;-83
2021/06/02 05:28:26;;;;;;;12.23;5.47;;;;;;;16.00;45.25;100800.27;126063;1104;102987;-83
2021/06/02 05:31:42;;;;;;;8.03;5.17;;;;;;;16.14;45.09;100800.45;126190;1104;101352;-83
2021/06/02 05:35:01;;;;;;;8.03;5.13;;;;;;;16.28;44.97;100797.19;126023;1100;102966;-83
2021/06/02 05:38:07;;;;;;;8.83;5.83;;;;;;;16.46;44.96;100798.09;126080;1107;102966;-83
2021/06/02 05:41:10;;;;;;;10.80;5.83;;;;;;;16.63;44.67;100812.16;126020;1104;103068;-83
2021/06/02 05:44:37;;;;;;;9.25;6.30;;;;;;;16.82;44.98;100806.03;126119;1100;103184;-83
2021/06/02 05:47:43;;;;;;;10.55;6.55;;;;;;;17.04;45.53;100821.63;125164;1108;102955;-83
2021/06/02 05:50:59;;;;;;;10.40;5.77;;;;;;;17.24;45.31;100816.23;125959;1100;102934;-83
2021/06/02 05:54:04;;;;;;;9.33;6.20;;;;;;;17.33;44.98;100823.66;125966;1107;103256;-82
2021/06/02 05:57:26;;;;;;;16.33;6.17;;;;;;;17.35;45.10;100820.95;126002;1107;102974;-83
2021/06/02 06:00:29;;;;;;;12.60;5.67;;;;;;;17.40;44.41;100809.22;125990;1104;103072;-83
2021/06/02 06:03:51;;;;;;;10.30;5.30;;;;;;;17.29;44.71;100819.48;126120;1104;101324;-83
2021/06/02 06:07:13;;;;;;;14.00;6.10;;;;;;;17.30;44.67;100818.55;126100;1104;102765;-83
2021/06/02 06:10:42;;;;;;;11.30;5.50;;;;;;;17.30;44.24;100828.25;126206;1099;102960;-81
2021/06/02 06:13:54;;;;;;;13.10;4.85;;;;;;;17.29;43.59;100829.18;126124;1104;103132;-82
2021/06/02 06:16:55;;;;;;;12.27;5.13;;;;;;;17.28;43.22;100835.38;126044;1104;102941;-82
2021/06/02 06:19:48;;;;;;;9.65;4.70;;;;;;;17.33;43.17;100834.21;126158;1104;104195;-82
2021/06/02 06:23:14;;;;;;;8.63;3.57;;;;;;;17.38;41.40;100832.19;126070;1105;102934;-82
2021/06/02 06:26:39;;;;;;;9.10;3.87;;;;;;;17.38;41.82;100832.19;126571;1101;103029;-81
2021/06/02 06:29:40;;;;;;;6.93;3.30;;;;;;;17.53;41.30;100830.55;126563;1101;103827;-81
2021/06/02 06:32:32;;;;;;;7.60;3.47;;;;;;;17.74;40.97;100828.61;126549;1101;103139;-81
2021/06/02 06:35:24;;;;;;;9.63;4.20;;;;;;;17.84;40.55;100829.84;126582;1101;102893;-81
2021/06/02 06:38:22;;;;;;;8.10;3.67;;;;;;;17.98;39.97;100822.05;126488;1101;102959;-81
2021/06/02 06:41:21;;;;;;;17.53;4.03;;;;;;;18.12;39.78;100824.77;126447;1101;102990;-82
2021/06/02 06:44:12;;;;;;;9.43;3.73;;;;;;;18.31;39.74;100831.69;126538;1096;102977;-81
2021/06/02 06:47:02;;;;;;;11.10;3.97;;;;;;;18.73;39.50;100825.00;126500;1101;102931;-82
2021/06/02 06:49:55;;;;;;;12.93;4.47;;;;;;;19.08;39.22;100821.19;126501;1101;102973;-82
2021/06/02 06:52:47;;;;;;;11.25;3.40;;;;;;;19.37;38.32;100826.53;126540;1093;103106;-82
2021/06/02 06:55:38;;;;;;;5.07;3.00;;;;;;;19.65;38.61;100826.63;126616;1101;102928;-82
2021/06/02 06:58:27;;;;;;;5.93;3.10;;;;;;;20.14;37.47;100818.31;126585;1101;103020;-82
2021/06/02 07:01:16;;;;;;;8.80;3.40;;;;;;;20.30;36.31;100837.59;126607;1101;103117;-82
2021/06/02 07:04:09;;;;;;;4.90;2.50;;;;;;;20.36;35.58;100834.55;126530;1101;102933;-83
2021/06/02 07:06:58;;;;;;;10.40;3.40;;;;;;;20.59;36.60;100840.20;126571;1098;102998;-82
2021/06/02 07:09:47;;;;;;;6.77;3.23;;;;;;;21.31;37.29;100839.84;126682;1100;103188;-83
2021/06/02 07:12:36;;;;;;;4.90;2.60;;;;;;;22.29;36.73;100828.59;126600;1101;102958;-83
2021/06/02 07:15:26;;;;;;;4.57;2.60;;;;;;;23.36;34.91;100831.33;126565;1101;102832;-84
2021/06/02 07:18:19;;;;;;;10.57;2.70;;;;;;;25.03;32.76;100824.24;126610;1093;102941;-82
2021/06/02 07:21:08;;;;;;;5.17;2.63;;;;;;;27.18;30.31;100815.97;126610;1101;102744;-83
2021/06/02 07:23:57;;;;;;;9.80;2.97;;;;;;;28.86;29.53;100808.65;126587;1101;103066;-82
2021/06/02 07:26:46;;;;;;;6.97;2.60;;;;;;;30.78;27.49;100811.09;126577;1101;103032;-82
2021/06/02 07:29:42;;;;;;;5.65;2.00;;;;;;;32.19;21.90;100805.18;126590;1101;102931;-82
2021/06/02 07:32:30;;;;;;;7.13;2.63;;;;;;;33.24;23.07;100808.22;126634;1101;102968;-83
2021/06/02 07:35:18;;;;;;;5.40;2.07;;;;;;;34.58;21.63;100799.91;126657;1101;103029;-82
2021/06/02 07:38:09;;;;;;;3.77;1.80;;;;;;;35.58;20.82;100801.66;126552;1101;102997;-82
2021/06/02 07:40:56;;;;;;;8.27;2.00;;;;;;;35.08;18.11;100798.13;126632;1100;102973;-83
2021/06/02 07:43:44;;;;;;;5.93;1.60;;;;;;;34.17;17.22;100805.88;126619;1100;103422;-82
2021/06/02 07:46:34;;;;;;;70.87;5.13;;;;;;;33.55;17.97;100808.09;126571;1100;103078;-84
2021/06/02 07:49:23;;;;;;;6.90;1.87;;;;;;;33.12;17.70;100806.97;126607;1101;100703;-83
2021/06/02 07:52:11;;;;;;;8.90;2.27;;;;;;;32.12;18.92;100806.88;126602;1101;102949;-83
2021/06/02 07:54:59;;;;;;;2.27;1.60;;;;;;;31.32;18.14;100812.31;126637;1101;102973;-82
2021/06/02 07:57:47;;;;;;;4.93;1.87;;;;;;;30.22;18.78;100809.92;126575;1101;103089;-82
2021/06/02 08:00:36;;;;;;;5.20;1.93;;;;;;;29.78;19.37;100810.86;126656;1101;103000;-81
2021/06/02 08:03:26;;;;;;;3.70;1.63;;;;;;;30.32;19.92;100816.00;126625;1101;103056;-84
2021/06/02 08:06:15;;;;;;;3.60;1.80;;;;;;;31.13;19.82;100809.94;126603;1094;103077;-83
2021/06/02 08:09:04;;;;;;;2.30;1.73;;;;;;;31.53;20.25;100800.98;126699;1101;103075;-81
2021/06/02 08:11:52;;;;;;;6.23;1.60;;;;;;;31.47;20.74;100812.47;126542;1101;101979;-82
2021/06/02 08:14:40;;;;;;;3.23;2.00;;;;;;;30.51;19.62;100804.95;126467;1093;102993;-82
2021/06/02 08:17:28;;;;;;;5.03;1.90;;;;;;;29.35;21.09;100822.49;126629;1101;103145;-82
2021/06/02 08:20:16;;;;;;;3.03;1.50;;;;;;;28.76;21.75;100825.81;126577;1101;102997;-83
2021/06/02 08:23:04;;;;;;;5.23;2.03;;;;;;;28.32;22.49;100822.98;126578;1101;102956;-84
2021/06/02 08:25:52;;;;;;;3.30;1.80;;;;;;;27.81;22.45;100824.30;126647;1096;102911;-83
2021/06/02 08:28:40;;;;;;;4.13;1.70;;;;;;;27.26;22.62;100831.31;126710;1101;103065;-82
2021/06/02 08:31:28;;;;;;;4.80;2.17;;;;;;;26.76;23.10;100824.26;126640;1101;102943;-82
2021/06/02 08:34:17;;;;;;;5.00;1.97;;;;;;;26.06;22.70;100832.36;126694;1101;102901;-82
2021/06/02 08:37:06;;;;;;;6.83;2.17;;;;;;;25.28;24.17;100831.88;126596;1101;103018;-82
2021/06/02 08:39:54;;;;;;;5.63;2.13;;;;;;;24.91;25.21;100831.41;126624;1101;103189;-82
2021/06/02 08:42:44;;;;;;;3.13;1.83;;;;;;;24.68;25.89;100822.64;126619;1101;102958;-83
2021/06/02 08:45:32;;;;;;;4.00;1.80;;;;;;;24.71;26.25;100830.38;126533;1101;103032;-82
2021/06/02 08:48:20;;;;;;;13.03;5.50;;;;;;;24.96;23.77;100831.89;126554;1101;100493;-84
2021/06/02 08:51:08;;;;;;;5.13;2.47;;;;;;;24.47;23.36;100819.06;126591;1098;103038;-83
2021/06/02 08:53:56;;;;;;;12.97;3.00;;;;;;;23.85;24.51;100832.02;126705;1098;102937;-82
2021/06/02 08:56:44;;;;;;;15.47;3.90;;;;;;;23.25;24.75;100833.09;126539;1098;103040;-83
2021/06/02 08:59:33;;;;;;;12.73;3.47;;;;;;;22.83;25.44;100832.70;126669;1093;103110;-83
2021/06/02 09:02:22;;;;;;;5.50;2.70;;;;;;;22.58;26.28;100834.44;126736;1098;102937;-84
2021/06/02 09:05:11;;;;;;;5.00;2.33;;;;;;;22.41;26.50;100828.66;126683;1098;103053;-83
2021/06/02 09:08:00;;;;;;;5.60;2.10;;;;;;;22.31;27.17;100826.67;126692;1098;102799;-83
2021/06/02 09:10:49;;;;;;;5.53;2.00;;;;;;;22.28;26.96;100832.22;126705;1098;103116;-84
2021/06/02 09:13:37;;;;;;;3.53;1.70;;;;;;;22.46;27.58;100839.83;126749;1098;103023;-83
2021/06/02 09:16:29;;;;;;;1.80;1.40;;;;;;;23.11;26.96;100837.64;126853;1098;101341;-83
2021/06/02 09:19:38;;;;;;;2.83;1.97;;;;;;;23.57;26.50;100828.02;126782;1098;103603;-84
2021/06/02 09:22:27;;;;;;;4.20;1.93;;;;;;;23.61;25.31;100824.14;126676;1093;102953;-84
2021/06/02 09:25:23;;;;;;;4.57;1.43;;;;;;;23.67;25.35;100821.84;126680;1098;103099;-84
2021/06/02 09:28:10;;;;;;;2.20;1.67;;;;;;;24.19;25.03;100815.06;126767;1100;103030;-82
2021/06/02 09:31:26;;;;;;;2.87;1.60;;;;;;;24.55;24.82;100826.42;126690;1098;103113;-82
2021/06/02 09:34:22;;;;;;;4.07;1.90;;;;;;;24.61;23.76;100831.28;126808;1098;103091;-82
2021/06/02 09:37:10;;;;;;;2.97;1.50;;;;;;;24.80;24.48;100828.80;126647;1093;102939;-83
2021/06/02 09:39:58;;;;;;;3.73;1.50;;;;;;;25.01;24.32;100828.86;126734;1099;102935;-83
2021/06/02 09:42:46;;;;;;;3.63;1.30;;;;;;;25.05;24.08;100824.11;126690;1099;103420;-83
2021/06/02 09:45:35;;;;;;;2.57;1.73;;;;;;;25.04;25.08;100812.59;126681;1101;103036;-83
2021/06/02 09:48:24;;;;;;;2.37;1.50;;;;;;;25.81;24.88;100806.91;126638;1093;103076;-83
2021/06/02 09:51:31;;;;;;;3.50;1.63;;;;;;;26.86;23.40;100810.02;126577;1101;103068;-83
2021/06/02 09:54:24;;;;;;;3.75;1.65;;;;;;;27.16;22.82;100815.27;126653;1101;103039;-83
2021/06/02 09:57:19;;;;;;;2.07;1.50;;;;;;;27.14;22.33;100814.56;126652;1093;103769;-83
2021/06/02 10:00:08;;;;;;;7.77;1.60;;;;;;;27.09;22.52;100812.30;126778;1098;102966;-82
2021/06/02 10:03:08;;;;;;;4.43;1.60;;;;;;;27.32;22.59;100814.69;126707;1093;103114;-82
2021/06/02 10:05:56;;;;;;;6.77;2.03;;;;;;;27.99;22.32;100817.17;126861;1098;102962;-82
2021/06/02 10:08:55;;;;;;;3.97;1.47;;;;;;;28.26;21.89;100813.70;126619;1100;103055;-83
2021/06/02 10:12:05;;;;;;;2.13;1.70;;;;;;;28.25;21.59;100812.02;126763;1098;102983;-83
2021/06/02 10:15:00;;;;;;;3.97;1.60;;;;;;;28.08;21.08;100804.73;126703;1098;102978;-82
2021/06/02 10:17:47;;;;;;;2.70;1.57;;;;;;;27.67;20.97;100801.52;126673;1098;101877;-83
2021/06/02 10:20:37;;;;;;;4.10;1.90;;;;;;;27.20;20.47;100800.59;126729;1100;102984;-83
2021/06/02 10:23:47;;;;;;;4.63;1.83;;;;;;;26.46;21.68;100808.30;126640;1093;103077;-82
2021/06/02 10:26:38;;;;;;;2.90;1.45;;;;;;;26.24;22.21;100817.37;126675;1101;102872;-82
2021/06/02 10:29:26;;;;;;;3.67;1.50;;;;;;;26.45;22.83;100815.48;126724;1099;103059;-82
2021/06/02 10:32:35;;;;;;;5.47;1.40;;;;;;;26.91;22.49;100813.11;126721;1098;101785;-83
2021/06/02 10:35:24;;;;;;;4.83;1.43;;;;;;;27.24;22.25;100814.55;126664;1093;103075;-82
2021/06/02 10:38:16;;;;;;;4.77;1.60;;;;;;;27.70;21.62;100805.73;126731;1101;103192;-82
2021/06/02 10:41:05;;;;;;;5.47;1.70;;;;;;;28.10;21.70;100804.58;126755;1098;103102;-81
2021/06/02 10:44:02;;;;;;;3.20;1.60;;;;;;;28.53;21.46;100802.08;126716;1100;101297;-81
2021/06/02 10:46:52;;;;;;;4.20;1.40;;;;;;;28.88;21.57;100803.97;126694;1098;103024;-82
2021/06/02 10:49:40;;;;;;;4.50;1.93;;;;;;;28.71;19.93;100796.72;126682;1098;103077;-81
2021/06/02 10:52:36;;;;;;;6.27;3.00;;;;;;;28.24;20.93;100802.25;126645;1098;102962;-82
2021/06/02 10:55:37;;;;;;;7.37;4.43;;;;;;;27.80;20.96;100800.33;126577;1098;102832;-82
2021/06/02 10:58:31;;;;;;;2.90;2.20;;;;;;;27.39;21.22;100797.89;126626;1098;103123;-83
2021/06/02 11:01:21;;;;;;;8.50;3.87;;;;;;;27.15;20.76;100799.34;126669;1093;103463;-81
2021/06/02 11:04:12;;;;;;;3.90;3.10;;;;;;;26.77;21.04;100793.84;126595;1100;102994;-81
2021/06/02 11:07:18;;;;;;;6.93;3.70;;;;;;;26.68;21.53;100793.81;126567;1098;101905;-82
2021/06/02 11:10:07;;;;;;;5.10;3.80;;;;;;;26.83;22.06;100800.45;126633;1098;102952;-81
2021/06/02 11:12:58;;;;;;;6.25;3.65;;;;;;;26.96;21.94;100790.31;126837;1098;103084;-82
2021/06/02 11:15:48;;;;;;;11.70;6.90;;;;;;;26.72;21.44;100796.06;126839;1098;103098;-83
2021/06/02 11:18:39;;;;;;;7.17;4.70;;;;;;;26.29;21.94;100795.55;126583;1100;103085;-82
2021/06/02 11:21:28;;;;;;;5.53;4.10;;;;;;;25.88;22.17;100797.40;126603;1098;102934;-82
2021/06/02 11:24:32;;;;;;;9.67;5.67;;;;;;;25.60;22.38;100798.91;126662;1093;101742;-82
2021/06/02 11:27:24;;;;;;;10.80;6.67;;;;;;;25.57;22.61;100809.86;126723;1098;102978;-82
2021/06/02 11:30:20;;;;;;;8.87;4.50;;;;;;;25.51;22.69;100805.91;126665;1098;102920;-82
2021/06/02 11:33:29;;;;;;;;;;;;;;;;;;;;;
2021/06/02 11:37:13;;;;;;;10.87;7.03;;;;;;;25.45;23.50;100811.75;126718;1093;102936;-83
2021/06/02 11:40:32;;;;;;;13.27;7.30;;;;;;;25.32;23.05;100820.95;126730;1098;102934;-81
2021/06/02 11:43:48;;;;;;;12.17;5.20;;;;;;;25.07;23.32;100815.00;126647;1098;103004;-82
2021/06/02 11:47:32;;;;;;;17.10;10.00;;;;;;;24.89;23.67;100808.50;126632;1099;102553;-84
2021/06/02 11:51:28;;;;;;;7.00;3.80;;;;;;;24.66;22.81;100819.25;126546;1101;103061;-83
2021/06/02 11:55:39;;;;;;;;;;;;;;;;;;;;;
2021/06/02 11:59:51;;;;;;;11.70;6.63;;;;;;;23.42;24.31;100809.55;126498;1101;102933;-83
2021/06/02 12:03:29;;;;;;;;;;;;;;;;;;;;;
2021/06/02 12:07:59;;;;;;;5.97;2.20;;;;;;;23.46;24.46;100800.36;126300;1101;103032;-83
2021/06/02 12:11:25;;;;;;;12.67;3.33;;;;;;;23.78;24.58;100805.03;126235;1101;103200;-80
2021/06/02 12:14:25;;;;;;;8.40;4.53;;;;;;;23.70;24.48;100807.46;126208;1101;102992;-82
2021/06/02 12:17:17;;;;;;;9.67;5.73;;;;;;;23.60;24.47;100811.80;126362;1101;101338;-82
2021/06/02 12:20:14;;;;;;;9.70;6.10;;;;;;;23.56;24.95;100807.64;126241;1097;102956;-82
2021/06/02 12:23:06;;;;;;;14.13;8.40;;;;;;;23.54;24.92;100806.92;126201;1101;103085;-82
2021/06/02 12:25:56;;;;;;;7.93;4.77;;;;;;;23.71;24.75;100803.83;126183;1101;101397;-83
2021/06/02 12:28:51;;;;;;;7.97;4.97;;;;;;;23.96;24.77;100803.58;126371;1102;102947;-81
2021/06/02 12:31:42;;;;;;;9.60;6.10;;;;;;;24.19;24.83;100804.40;126287;1104;103108;-83
2021/06/02 12:34:35;;;;;;;4.40;2.57;;;;;;;24.41;23.82;100806.20;126372;1101;103021;-83
2021/06/02 12:37:24;;;;;;;10.87;6.23;;;;;;;24.42;24.41;100805.27;126757;1101;103154;-84
2021/06/02 12:40:42;;;;;;;12.03;8.50;;;;;;;24.57;24.12;100795.98;126699;1093;102868;-81
2021/06/02 12:43:46;;;;;;;18.23;10.83;;;;;;;24.71;24.68;100800.20;126642;1093;103192;-83
2021/06/02 12:46:35;;;;;;;8.73;4.87;;;;;;;24.51;23.74;100798.32;126585;1101;102969;-82
2021/06/02 12:49:23;;;;;;;10.27;4.70;;;;;;;24.20;24.45;100797.25;126584;1093;101869;-82
2021/06/02 12:52:14;;;;;;;8.80;3.90;;;;;;;23.78;23.71;100794.38;126602;1098;103112;-81
2021/06/02 12:55:09;;;;;;;8.13;2.67;;;;;;;23.21;23.95;100790.75;126640;1100;103017;-82
2021/06/02 12:58:25;;;;;;;9.90;5.17;;;;;;;22.83;25.08;100798.13;126788;1098;102959;-83
2021/06/02 13:01:15;;;;;;;12.37;4.90;;;;;;;22.50;25.10;100804.08;126475;1093;103224;-79
2021/06/02 13:04:06;;;;;;;6.07;2.20;;;;;;;22.20;24.52;100797.36;126653;1098;103048;-87
2021/06/02 13:07:01;;;;;;;15.20;8.27;;;;;;;22.16;25.31;100795.04;126939;1098;102955;-83
2021/06/02 13:10:01;;;;;;;10.90;3.93;;;;;;;22.26;25.79;100796.94;126756;1098;102930;-83
2021/06/02 13:13:38;;;;;;;3.63;2.40;;;;;;;22.39;25.45;100796.88;126663;1098;102951;-83
2021/06/02 13:17:32;;;;;;;;;;;;;;;;;;;;;
2021/06/02 13:21:57;;;;;;;7.15;5.05;;;;;;;22.99;26.14;100795.17;125251;1111;103072;-84
2021/06/02 13:25:24;;;;;;;;;;;;;;;23.13;25.97;100797.61;125066;1111;102066;-83
2021/06/02 13:29:34;;;;;;;;;;;;;;;;;;;;;
2021/06/02 13:38:07;;;;;;;8.70;4.47;;;;;;;23.10;26.09;100792.52;125019;1114;103048;-83
2021/06/02 13:41:39;;;;;;;10.90;6.20;;;;;;;22.99;26.13;100800.48;125120;1111;103002;-84
2021/06/02 13:45:09;;;;;;;9.90;5.90;;;;;;;22.88;25.85;100802.13;124557;1117;104045;-82
2021/06/02 13:48:03;;;;;;;13.35;6.85;;;;;;;22.92;25.69;100797.42;124626;1117;103115;-82
2021/06/02 13:51:07;;;;;;;6.80;2.00;;;;;;;22.90;24.45;100800.20;124478;1109;103093;-82
2021/06/02 13:54:02;;;;;;;17.30;9.57;;;;;;;22.77;25.60;100801.19;124818;1114;103059;-83
2021/06/02 13:57:07;;;;;;;12.15;5.80;;;;;;;22.83;25.69;100806.95;125389;1103;103571;-82
2021/06/02 14:00:06;;;;;;;12.17;6.50;;;;;;;22.91;25.40;100796.57;125650;1108;102094;-84